createdAt,value
2023-01-03T00:00:38.683Z,2.83
2023-01-03T00:03:06.305Z,3.20
2023-01-03T00:05:35.124Z,2.77
2023-01-03T00:08:02.712Z,2.00
2023-01-03T00:10:30.546Z,2.47
2023-01-03T00:12:58.718Z,3.20
2023-01-03T00:15:28.143Z,2.50
2023-01-03T00:17:56.498Z,3.27
2023-01-03T00:20:24.181Z,2.60
2023-01-03T00:22:51.753Z,2.20
2023-01-03T00:25:19.508Z,2.30
2023-01-03T00:27:47.461Z,2.03
2023-01-03T00:30:15.157Z,2.40
2023-01-03T00:32:44.183Z,2.80
2023-01-03T00:35:11.875Z,2.10
2023-01-03T00:37:39.455Z,2.07
2023-01-03T00:40:07.799Z,3.27
2023-01-03T00:42:55.416Z,2.97
2023-01-03T00:45:25.552Z,1.77
2023-01-03T00:47:55.032Z,2.50
2023-01-03T00:50:22.608Z,2.57
2023-01-03T00:52:50.429Z,2.43
2023-01-03T00:55:18.247Z,2.60
2023-01-03T00:57:45.829Z,1.93
2023-01-03T01:00:14.559Z,2.87
2023-01-03T01:02:42.328Z,2.40
2023-01-03T01:05:11.487Z,2.47
2023-01-03T01:07:39.358Z,1.93
2023-01-03T01:10:07.659Z,1.60
2023-01-03T01:12:35.315Z,2.40
2023-01-03T01:15:03.492Z,2.13
2023-01-03T01:17:31.106Z,2.30
2023-01-03T01:19:58.796Z,2.17
2023-01-03T01:22:27.720Z,2.40
2023-01-03T01:24:55.285Z,1.67
2023-01-03T01:27:23.740Z,2.27
2023-01-03T01:29:51.498Z,1.73
2023-01-03T01:32:19.257Z,2.03
2023-01-03T01:34:46.829Z,2.00
2023-01-03T01:37:14.452Z,2.80
2023-01-03T01:39:43.402Z,2.37
2023-01-03T01:42:31.108Z,2.20
2023-01-03T01:45:00.214Z,2.30
2023-01-03T01:47:35.056Z,2.63
2023-01-03T01:50:11.433Z,2.23
2023-01-03T01:52:43.618Z,2.10
2023-01-03T01:55:15.542Z,2.40
2023-01-03T01:57:44.415Z,2.07
2023-01-03T02:00:13.071Z,2.33
2023-01-03T02:02:46.468Z,2.70
2023-01-03T02:05:14.627Z,2.10
2023-01-03T02:07:42.280Z,2.40
2023-01-03T02:10:10.470Z,3.10
2023-01-03T02:13:00.287Z,2.33
2023-01-03T02:15:40.014Z,2.47
2023-01-03T02:18:25.631Z,2.80
2023-01-03T02:21:16.900Z,2.03
2023-01-03T02:24:10.037Z,3.13
2023-01-03T02:26:55.282Z,2.87
2023-01-03T02:30:02.190Z,3.27
2023-01-03T02:32:37.843Z,3.50
2023-01-03T02:35:07.919Z,3.30
2023-01-03T02:37:41.966Z,2.63
2023-01-03T02:40:14.829Z,2.63
2023-01-03T02:42:59.645Z,3.90
2023-01-03T02:45:36.932Z,3.33
2023-01-03T02:48:10.842Z,3.30
2023-01-03T02:50:46.201Z,2.73
2023-01-03T02:53:16.493Z,2.80
2023-01-03T02:55:44.489Z,2.83
2023-01-03T02:58:16.408Z,3.70
2023-01-03T03:00:48.574Z,3.20
2023-01-03T03:03:20.133Z,3.40
2023-01-03T03:05:51.362Z,2.97
2023-01-03T03:08:19.229Z,5.23
2023-01-03T03:11:05.745Z,3.50
2023-01-03T03:13:36.311Z,2.73
2023-01-03T03:16:07.245Z,2.97
2023-01-03T03:18:43.600Z,3.60
2023-01-03T03:21:31.274Z,3.70
2023-01-03T03:24:19.227Z,3.50
2023-01-03T03:26:48.048Z,3.93
2023-01-03T03:29:17.139Z,5.80
2023-01-03T03:31:46.827Z,3.17
2023-01-03T03:34:18.565Z,4.07
2023-01-03T03:36:53.986Z,3.50
2023-01-03T03:39:40.039Z,3.70
2023-01-03T03:42:36.972Z,3.57
2023-01-03T03:45:12.373Z,4.50
2023-01-03T03:47:46.754Z,3.40
2023-01-03T03:50:20.840Z,3.60
2023-01-03T03:52:50.737Z,4.10
2023-01-03T03:55:21.512Z,3.03
2023-01-03T03:57:53.015Z,3.67
2023-01-03T04:00:22.956Z,3.80
2023-01-03T04:02:51.049Z,3.00
2023-01-03T04:05:22.362Z,3.63
2023-01-03T04:07:50.117Z,4.13
2023-01-03T04:10:20.353Z,3.70
2023-01-03T04:12:48.633Z,3.40
2023-01-03T04:15:16.722Z,3.97
2023-01-03T04:17:44.773Z,4.90
2023-01-03T04:20:13.031Z,3.70
2023-01-03T04:22:42.237Z,4.07
2023-01-03T04:25:10.259Z,4.17
2023-01-03T04:27:37.909Z,5.70
2023-01-03T04:30:06.926Z,4.93
2023-01-03T04:32:34.573Z,5.50
2023-01-03T04:35:02.243Z,4.70
2023-01-03T04:37:29.834Z,4.83
2023-01-03T04:39:58.748Z,4.47
2023-01-03T04:42:43.839Z,4.70
2023-01-03T04:45:12.182Z,5.43
2023-01-03T04:47:40.154Z,5.10
2023-01-03T04:50:09.617Z,5.07
2023-01-03T04:52:37.230Z,4.97
2023-01-03T04:55:07.167Z,4.60
2023-01-03T04:57:34.769Z,5.70
2023-01-03T05:00:02.345Z,7.87
2023-01-03T05:02:29.959Z,5.40
2023-01-03T05:04:57.576Z,4.60
2023-01-03T05:07:25.164Z,5.00
2023-01-03T05:09:52.770Z,5.80
2023-01-03T05:12:21.654Z,5.10
2023-01-03T05:14:49.455Z,5.90
2023-01-03T05:17:18.726Z,5.90
2023-01-03T05:20:00.322Z,5.97
2023-01-03T05:22:45.415Z,3.93
2023-01-03T05:25:31.708Z,4.83
2023-01-03T05:28:01.851Z,5.57
2023-01-03T05:30:29.775Z,5.20
2023-01-03T05:32:57.501Z,5.37
2023-01-03T05:35:25.142Z,6.10
2023-01-03T05:37:53.713Z,5.90
2023-01-03T05:40:21.289Z,5.90
2023-01-03T05:42:49.450Z,5.30
2023-01-03T05:45:19.095Z,5.40
2023-01-03T05:47:47.592Z,6.00
2023-01-03T05:50:15.145Z,5.60
2023-01-03T05:52:42.766Z,4.77
2023-01-03T05:55:11.178Z,5.60
2023-01-03T05:57:38.965Z,5.97
2023-01-03T06:00:07.731Z,6.80
2023-01-03T06:02:36.981Z,5.30
2023-01-03T06:05:04.904Z,6.27
2023-01-03T06:07:33.968Z,6.40
2023-01-03T06:10:02.493Z,6.50
2023-01-03T06:12:30.714Z,6.63
2023-01-03T06:14:58.546Z,6.10
2023-01-03T06:17:43.528Z,5.90
2023-01-03T06:20:12.556Z,6.70
2023-01-03T06:22:42.515Z,7.00
2023-01-03T06:25:10.483Z,6.90
2023-01-03T06:27:38.179Z,7.17
2023-01-03T06:30:07.047Z,7.03
2023-01-03T06:32:34.683Z,6.97
2023-01-03T06:35:02.328Z,6.97
2023-01-03T06:37:31.314Z,6.30
2023-01-03T06:39:58.922Z,6.47
2023-01-03T06:42:42.855Z,7.10
2023-01-03T06:45:30.509Z,7.90
2023-01-03T06:48:17.081Z,7.80
2023-01-03T06:51:02.950Z,7.77
2023-01-03T06:53:35.014Z,6.53
2023-01-03T06:56:02.715Z,7.33
2023-01-03T06:58:30.501Z,7.07
2023-01-03T07:00:59.457Z,8.30
2023-01-03T07:03:27.259Z,6.67
2023-01-03T07:05:54.947Z,6.83
2023-01-03T07:08:23.058Z,6.00
2023-01-03T07:10:52.043Z,6.47
2023-01-03T07:13:37.168Z,7.17
2023-01-03T07:16:04.958Z,5.80
2023-01-03T07:18:32.883Z,6.50
2023-01-03T07:21:00.538Z,6.40
2023-01-03T07:23:28.133Z,5.03
2023-01-03T07:25:57.401Z,5.10
2023-01-03T07:28:25.066Z,6.43
2023-01-03T07:30:52.897Z,6.57
2023-01-03T07:33:20.552Z,5.17
2023-01-03T07:35:48.135Z,4.80
2023-01-03T07:38:15.846Z,4.70
2023-01-03T07:40:43.464Z,5.00
2023-01-03T07:43:30.831Z,4.27
2023-01-03T07:45:58.507Z,4.83
2023-01-03T07:48:26.122Z,5.17
2023-01-03T07:50:57.584Z,5.20
2023-01-03T07:53:25.472Z,4.87
2023-01-03T07:55:53.373Z,4.80
2023-01-03T07:58:22.407Z,4.13
2023-01-03T08:00:49.983Z,4.47
2023-01-03T08:03:17.615Z,5.10
2023-01-03T08:05:45.304Z,5.40
2023-01-03T08:08:12.997Z,5.43
2023-01-03T08:11:07.181Z,5.60
2023-01-03T08:13:36.668Z,5.23
2023-01-03T08:16:05.029Z,5.60
2023-01-03T08:18:32.806Z,5.60
2023-01-03T08:21:00.567Z,5.90
2023-01-03T08:23:28.776Z,6.33
2023-01-03T08:26:01.474Z,6.30
2023-01-03T08:28:29.281Z,7.87
2023-01-03T08:30:58.961Z,6.50
2023-01-03T08:33:30.417Z,7.40
2023-01-03T08:36:03.410Z,8.83
2023-01-03T08:38:32.300Z,8.80
2023-01-03T08:41:01.784Z,7.53
2023-01-03T08:43:29.592Z,7.30
2023-01-03T08:45:58.687Z,7.70
2023-01-03T08:48:26.524Z,7.90
2023-01-03T08:50:54.132Z,9.10
2023-01-03T08:53:22.930Z,8.97
2023-01-03T08:55:50.705Z,10.10
2023-01-03T08:58:18.492Z,9.07
2023-01-03T09:00:46.237Z,7.93
2023-01-03T09:03:15.528Z,11.17
2023-01-03T09:05:43.269Z,9.60
2023-01-03T09:08:10.836Z,8.83
2023-01-03T09:10:47.045Z,8.60
2023-01-03T09:13:15.383Z,8.93
2023-01-03T09:15:43.001Z,8.20
2023-01-03T09:18:10.754Z,8.77
2023-01-03T09:20:39.761Z,7.57
2023-01-03T09:23:07.712Z,7.90
2023-01-03T09:25:37.518Z,9.30
2023-01-03T09:28:05.642Z,8.17
2023-01-03T09:30:33.362Z,10.23
2023-01-03T09:33:00.949Z,8.40
2023-01-03T09:35:28.759Z,8.03
2023-01-03T09:37:57.886Z,8.80
2023-01-03T09:40:27.357Z,8.90
2023-01-03T09:43:13.339Z,8.37
2023-01-03T09:45:43.383Z,7.07
2023-01-03T09:48:15.774Z,8.30
2023-01-03T09:51:15.911Z,7.43
2023-01-03T09:53:57.077Z,7.77
2023-01-03T09:56:42.696Z,7.70
2023-01-03T09:59:30.327Z,9.50
2023-01-03T10:02:25.145Z,7.80
2023-01-03T10:05:09.715Z,7.50
2023-01-03T10:07:50.100Z,8.13
2023-01-03T10:10:26.286Z,7.53
2023-01-03T10:13:00.029Z,7.50
2023-01-03T10:15:37.518Z,8.20
2023-01-03T10:18:12.034Z,9.53
2023-01-03T10:20:44.633Z,8.47
2023-01-03T10:23:13.542Z,8.63
2023-01-03T10:25:45.988Z,7.00
2023-01-03T10:28:19.337Z,7.53
2023-01-03T10:31:05.432Z,8.23
2023-01-03T10:33:40.714Z,7.30
2023-01-03T10:36:10.082Z,7.67
2023-01-03T10:38:46.270Z,8.13
2023-01-03T10:41:23.110Z,9.00
2023-01-03T10:43:58.550Z,9.23
2023-01-03T10:46:28.127Z,8.30
2023-01-03T10:49:26.475Z,7.83
2023-01-03T10:51:55.460Z,8.90
2023-01-03T10:54:28.228Z,8.20
2023-01-03T10:56:57.221Z,8.57
2023-01-03T10:59:27.430Z,8.67
2023-01-03T11:02:03.430Z,8.67
2023-01-03T11:04:32.863Z,6.80
2023-01-03T11:07:12.249Z,8.30
2023-01-03T11:09:50.450Z,7.00
2023-01-03T11:12:25.487Z,7.20
2023-01-03T11:14:55.892Z,7.27
2023-01-03T11:17:25.049Z,7.03
2023-01-03T11:19:54.079Z,8.07
2023-01-03T11:22:37.944Z,6.90
2023-01-03T11:25:17.862Z,6.80
2023-01-03T11:28:16.313Z,6.53
2023-01-03T11:30:50.539Z,5.93
2023-01-03T11:33:29.570Z,5.57
2023-01-03T11:36:08.038Z,6.60
2023-01-03T11:38:46.324Z,5.40
2023-01-03T11:41:32.678Z,5.13
2023-01-03T11:44:17.553Z,4.50
2023-01-03T11:46:57.150Z,3.83
2023-01-03T11:49:30.525Z,4.97
2023-01-03T11:52:17.134Z,4.53
2023-01-03T11:54:59.578Z,4.50
2023-01-03T11:57:35.555Z,2.80
2023-01-03T12:00:12.520Z,4.03
2023-01-03T12:03:02.227Z,4.03
2023-01-03T12:05:45.458Z,4.47
2023-01-03T12:08:28.666Z,4.00
2023-01-03T12:11:03.942Z,3.90
2023-01-03T12:13:35.532Z,4.90
2023-01-03T12:16:08.906Z,3.83
2023-01-03T12:18:42.361Z,4.13
2023-01-03T12:21:12.645Z,4.50
2023-01-03T12:23:42.671Z,3.67
2023-01-03T12:26:11.522Z,4.23
2023-01-03T12:28:42.329Z,5.30
2023-01-03T12:31:24.061Z,5.30
2023-01-03T12:34:04.309Z,4.73
2023-01-03T12:36:38.574Z,3.73
2023-01-03T12:39:15.506Z,6.13
2023-01-03T12:41:46.524Z,5.00
2023-01-03T12:44:16.941Z,4.93
2023-01-03T12:46:48.938Z,5.07
2023-01-03T12:49:18.716Z,4.33
2023-01-03T12:51:46.276Z,3.50
2023-01-03T12:54:21.455Z,4.70
2023-01-03T12:57:08.781Z,4.80
2023-01-03T12:59:54.826Z,4.33
2023-01-03T13:02:32.023Z,5.07
2023-01-03T13:05:08.165Z,4.73
2023-01-03T13:07:35.967Z,5.10
2023-01-03T13:10:06.473Z,4.30
2023-01-03T13:12:35.952Z,4.53
2023-01-03T13:15:13.323Z,5.60
2023-01-03T13:17:45.451Z,4.40
2023-01-03T13:20:28.112Z,5.10
2023-01-03T13:22:56.059Z,4.30
2023-01-03T13:25:35.431Z,5.83
2023-01-03T13:28:09.868Z,5.10
2023-01-03T13:30:38.271Z,4.40
2023-01-03T13:33:17.528Z,4.70
2023-01-03T13:36:03.023Z,4.67
2023-01-03T13:38:31.908Z,4.57
2023-01-03T13:41:17.739Z,5.17
2023-01-03T13:43:49.576Z,5.00
2023-01-03T13:46:22.706Z,5.23
2023-01-03T13:48:57.262Z,7.00
2023-01-03T13:51:35.623Z,5.27
2023-01-03T13:54:06.832Z,5.50
2023-01-03T13:56:58.425Z,5.80
2023-01-03T13:59:30.464Z,5.50
2023-01-03T14:02:06.342Z,6.07
2023-01-03T14:05:18.677Z,6.70
2023-01-03T14:07:57.462Z,6.77
2023-01-03T14:10:33.730Z,5.97
2023-01-03T14:13:27.158Z,5.33
2023-01-03T14:16:08.833Z,6.90
2023-01-03T14:18:37.471Z,6.10
2023-01-03T14:21:15.418Z,6.97
2023-01-03T14:24:02.029Z,5.67
2023-01-03T14:26:33.424Z,6.00
2023-01-03T14:29:01.158Z,5.73
2023-01-03T14:31:29.151Z,10.13
2023-01-03T14:33:59.471Z,6.03
2023-01-03T14:36:29.228Z,6.77
2023-01-03T14:38:58.091Z,6.30
2023-01-03T14:41:35.591Z,6.30
2023-01-03T14:44:06.927Z,6.30
2023-01-03T14:46:35.345Z,6.23
2023-01-03T14:49:06.374Z,6.80
2023-01-03T14:51:37.016Z,8.87
2023-01-03T14:54:05.539Z,6.23
2023-01-03T14:56:33.379Z,6.30
2023-01-03T14:59:01.429Z,5.43
2023-01-03T15:01:29.972Z,6.80
2023-01-03T15:03:58.105Z,5.70
2023-01-03T15:06:28.636Z,5.90
2023-01-03T15:09:00.180Z,6.83
2023-01-03T15:11:31.765Z,6.90
2023-01-03T15:14:02.978Z,6.00
2023-01-03T15:16:34.020Z,6.13
2023-01-03T15:19:07.250Z,6.30
2023-01-03T15:21:35.159Z,6.03
2023-01-03T15:24:04.434Z,6.80
2023-01-03T15:26:40.047Z,6.57
2023-01-03T15:29:13.129Z,5.83
2023-01-03T15:31:48.662Z,6.30
2023-01-03T15:34:17.772Z,6.63
2023-01-03T15:36:47.379Z,6.07
2023-01-03T15:39:19.676Z,6.40
2023-01-03T15:44:52.979Z,7.23
2023-01-03T15:47:22.483Z,6.93
2023-01-03T15:49:53.052Z,7.80
2023-01-03T15:52:20.664Z,9.00
2023-01-03T15:54:49.588Z,7.90
2023-01-03T15:57:20.531Z,8.53
2023-01-03T15:59:53.661Z,10.50
2023-01-03T16:02:23.121Z,11.23
2023-01-03T16:04:51.259Z,10.23
2023-01-03T16:07:18.862Z,10.37
2023-01-03T16:09:46.910Z,11.33
2023-01-03T16:12:19.101Z,11.77
2023-01-03T16:14:49.429Z,10.27
2023-01-03T16:17:24.368Z,12.40
2023-01-03T16:19:52.773Z,12.30
2023-01-03T16:22:37.075Z,12.40
2023-01-03T16:25:06.376Z,12.80
2023-01-03T16:27:35.514Z,14.37
2023-01-03T16:30:03.362Z,13.07
2023-01-03T16:32:31.323Z,13.57
2023-01-03T16:35:01.398Z,12.60
2023-01-03T16:37:29.343Z,13.60
2023-01-03T16:39:58.693Z,13.47
2023-01-03T16:42:28.362Z,15.03
2023-01-03T16:44:57.968Z,15.13
2023-01-03T16:47:29.214Z,15.83
2023-01-03T16:50:00.657Z,14.70
2023-01-03T16:52:30.047Z,15.73
2023-01-03T16:54:57.739Z,15.40
2023-01-03T16:57:26.320Z,15.83
2023-01-03T16:59:53.959Z,16.90
2023-01-03T17:02:22.939Z,16.97
2023-01-03T17:04:50.650Z,16.47
2023-01-03T17:07:20.456Z,15.30
2023-01-03T17:09:48.842Z,16.70
2023-01-03T17:12:18.999Z,14.80
2023-01-03T17:14:46.934Z,14.40
2023-01-03T17:17:17.932Z,14.03
2023-01-03T17:20:04.651Z,14.37
2023-01-03T17:22:33.445Z,14.87
2023-01-03T17:25:01.043Z,15.30
2023-01-03T17:27:33.024Z,16.00
2023-01-03T17:30:02.719Z,15.53
2023-01-03T17:32:30.640Z,15.83
2023-01-03T17:34:59.753Z,14.37
2023-01-03T17:37:27.440Z,15.10
2023-01-03T17:39:56.854Z,16.07
2023-01-03T17:42:25.625Z,17.63
2023-01-03T17:45:11.444Z,17.50
2023-01-03T17:47:58.099Z,17.03
2023-01-03T17:50:27.618Z,15.37
2023-01-03T17:52:56.366Z,16.80
2023-01-03T17:55:26.457Z,18.70
2023-01-03T17:57:54.455Z,18.57
2023-01-03T18:00:23.638Z,19.63
2023-01-03T18:02:51.868Z,18.00
2023-01-03T18:05:26.940Z,18.50
2023-01-03T18:07:57.525Z,18.97
2023-01-03T18:10:28.560Z,17.57
2023-01-03T18:12:56.279Z,17.30
2023-01-03T18:15:24.071Z,18.40
2023-01-03T18:17:51.853Z,19.40
2023-01-03T18:20:20.310Z,19.63
2023-01-03T18:22:48.409Z,18.37
2023-01-03T18:25:22.494Z,20.03
2023-01-03T18:27:52.205Z,18.10
2023-01-03T18:30:19.913Z,17.93
2023-01-03T18:32:47.676Z,17.97
2023-01-03T18:35:22.321Z,19.20
2023-01-03T18:37:55.635Z,18.23
2023-01-03T18:40:27.412Z,18.07
2023-01-03T18:43:12.705Z,19.80
2023-01-03T18:45:41.473Z,18.53
2023-01-03T18:48:12.258Z,18.93
2023-01-03T18:50:39.902Z,19.30
2023-01-03T18:53:07.543Z,19.93
2023-01-03T18:55:36.606Z,19.97
2023-01-03T18:58:07.734Z,18.73
2023-01-03T19:00:35.388Z,20.37
2023-01-03T19:03:03.237Z,20.40
2023-01-03T19:05:31.063Z,19.30
2023-01-03T19:07:58.663Z,21.07
2023-01-03T19:10:27.221Z,20.63
2023-01-03T19:12:57.669Z,20.47
2023-01-03T19:15:29.019Z,19.40
2023-01-03T19:17:57.032Z,21.83
2023-01-03T19:20:27.035Z,18.70
2023-01-03T19:22:56.060Z,19.90
2023-01-03T19:25:25.904Z,20.93
2023-01-03T19:27:57.139Z,20.60
2023-01-03T19:30:35.285Z,21.40
2023-01-03T19:33:06.090Z,24.23
2023-01-03T19:35:33.722Z,20.07
2023-01-03T19:38:01.431Z,22.57
2023-01-03T19:40:32.082Z,23.33
2023-01-03T19:43:01.541Z,22.00
2023-01-03T19:45:31.447Z,24.53
2023-01-03T19:48:00.675Z,21.20
2023-01-03T19:50:29.773Z,22.43
2023-01-03T19:52:58.011Z,21.00
2023-01-03T19:55:28.238Z,22.37
2023-01-03T19:57:56.326Z,19.87
2023-01-03T20:06:11.314Z,19.33
2023-01-03T20:08:39.043Z,22.90
2023-01-03T20:11:06.722Z,20.23
2023-01-03T20:13:34.577Z,21.60
2023-01-03T20:16:03.761Z,19.87
2023-01-03T20:18:34.183Z,18.53
2023-01-03T20:21:06.439Z,19.67
2023-01-03T20:23:36.294Z,19.50
2023-01-03T20:26:04.333Z,19.20
2023-01-03T20:28:32.114Z,18.30
2023-01-03T20:31:00.995Z,19.67
2023-01-03T20:33:30.417Z,18.87
2023-01-03T20:36:17.899Z,19.23
2023-01-03T20:38:51.475Z,19.07
2023-01-03T20:41:19.844Z,18.90
2023-01-03T20:43:50.204Z,18.63
2023-01-03T20:46:20.230Z,17.83
2023-01-03T20:48:51.611Z,20.10
2023-01-03T20:51:19.547Z,18.33
2023-01-03T20:53:53.918Z,18.80
2023-01-03T20:56:22.318Z,17.63
2023-01-03T20:58:50.047Z,20.43
2023-01-03T21:01:17.883Z,18.10
2023-01-03T21:03:45.763Z,20.47
2023-01-03T21:06:18.073Z,18.50
2023-01-03T21:08:54.937Z,17.67
2023-01-03T21:11:24.334Z,18.63
2023-01-03T21:13:52.531Z,17.63
2023-01-03T21:16:30.478Z,18.40
2023-01-03T21:19:02.387Z,18.80
2023-01-03T21:21:32.424Z,18.60
2023-01-03T21:24:00.490Z,17.23
2023-01-03T21:26:28.515Z,18.83
2023-01-03T21:28:57.923Z,18.00
2023-01-03T21:31:25.925Z,17.80
2023-01-03T21:33:53.913Z,16.87
2023-01-03T21:36:26.327Z,17.37
2023-01-03T21:38:56.787Z,15.47
2023-01-03T21:41:26.847Z,16.27
2023-01-03T21:43:58.173Z,16.90
2023-01-03T21:46:26.806Z,15.20
2023-01-03T21:48:54.969Z,15.30
2023-01-03T21:51:35.023Z,14.90
2023-01-03T21:54:07.738Z,15.63
2023-01-03T21:56:37.693Z,15.90
2023-01-03T21:59:05.529Z,14.10
2023-01-03T22:01:53.594Z,14.93
2023-01-03T22:04:20.578Z,13.83
2023-01-03T22:06:48.443Z,14.80
2023-01-03T22:09:31.625Z,13.27
2023-01-03T22:11:59.327Z,14.83
2023-01-03T22:14:26.946Z,12.57
2023-01-03T22:16:54.800Z,13.20
2023-01-03T22:19:22.533Z,11.10
2023-01-03T22:21:50.173Z,12.40
2023-01-03T22:24:19.105Z,11.80
2023-01-03T22:26:47.419Z,11.10
2023-01-03T22:29:15.262Z,11.17
2023-01-03T22:31:43.166Z,11.47
2023-01-03T22:34:10.804Z,11.30
2023-01-03T22:36:41.935Z,11.10
2023-01-03T22:39:12.351Z,9.83
2023-01-03T22:41:43.771Z,11.57
2023-01-03T22:44:12.944Z,10.00
2023-01-03T22:46:40.671Z,10.20
2023-01-03T22:49:08.556Z,9.23
2023-01-03T22:51:36.504Z,9.03
2023-01-03T22:54:07.494Z,10.00
2023-01-03T22:56:35.143Z,8.60
2023-01-03T22:59:04.401Z,8.13
2023-01-03T23:01:32.238Z,7.57
2023-01-03T23:04:01.139Z,8.40
2023-01-03T23:06:30.188Z,8.37
2023-01-03T23:08:58.380Z,8.37
2023-01-03T23:11:45.893Z,8.70
2023-01-03T23:14:17.102Z,8.13
2023-01-03T23:16:45.969Z,8.00
2023-01-03T23:19:15.334Z,6.80
2023-01-03T23:21:45.352Z,6.90
2023-01-03T23:24:14.009Z,7.03
2023-01-03T23:26:41.802Z,6.37
2023-01-03T23:29:10.106Z,5.87
2023-01-03T23:31:39.098Z,6.03
2023-01-03T23:34:08.400Z,5.60
2023-01-03T23:36:36.085Z,4.80
2023-01-03T23:39:04.275Z,5.33
2023-01-03T23:41:32.072Z,4.73
2023-01-03T23:43:59.759Z,4.87
2023-01-03T23:46:27.638Z,5.47
2023-01-03T23:48:57.891Z,4.20
2023-01-03T23:51:26.133Z,4.10
2023-01-03T23:53:54.411Z,3.10
2023-01-03T23:56:24.469Z,3.57
2023-01-03T23:58:52.689Z,3.30
